Time;durP1;ratioP1;P1;durP2;ratioP2;P2;SDS_P1;SDS_P2;PMS_P1;PMS_P2;Temp;Humidity;BMP_temperature;BMP_pressure;BME280_temperature;BME280_humidity;BME280_pressure;Samples;Min_cycle;Max_cycle;Signal;HPM_P1;HPM_P2
2024/04/01 00:01:11;;;;;;;17.73;12.05;;;;;;;11.81;100.00;99346.44;5036269;28;20272;-60
2024/04/01 00:03:36;;;;;;;18.58;12.52;;;;;;;11.85;100.00;99349.75;5036035;28;20231;-60
2024/04/01 00:06:02;;;;;;;17.63;12.60;;;;;;;11.77;100.00;99353.81;5036040;28;20185;-60
2024/04/01 00:08:27;;;;;;;19.30;13.35;;;;;;;11.77;100.00;99358.34;5035945;28;20232;-61
2024/04/01 00:10:53;;;;;;;20.63;13.55;;;;;;;11.77;100.00;99350.28;5036430;28;20540;-60
2024/04/01 00:13:19;;;;;;;16.20;11.35;;;;;;;11.73;100.00;99360.41;5036372;28;20204;-60
2024/04/01 00:15:45;;;;;;;16.08;11.70;;;;;;;11.66;100.00;99355.59;5035367;28;20184;-60
2024/04/01 00:18:10;;;;;;;17.52;12.38;;;;;;;11.63;100.00;99347.75;5036660;28;20184;-60
2024/04/01 00:20:36;;;;;;;21.17;13.55;;;;;;;11.67;100.00;99352.78;5051975;28;20184;-61
2024/04/01 00:23:02;;;;;;;18.40;11.93;;;;;;;11.64;100.00;99352.13;5036117;28;20533;-60
2024/04/01 00:25:27;;;;;;;18.83;13.02;;;;;;;11.57;100.00;99360.63;5035612;28;20234;-60
2024/04/01 00:27:53;;;;;;;17.60;13.00;;;;;;;11.68;100.00;99351.81;5036485;28;20181;-60
2024/04/01 00:30:18;;;;;;;14.73;11.93;;;;;;;11.55;100.00;99346.47;5036689;28;20590;-60
2024/04/01 00:32:43;;;;;;;25.35;16.45;;;;;;;11.35;100.00;99334.47;5036433;28;20250;-60
2024/04/01 00:35:14;;;;;;;17.42;13.25;;;;;;;11.37;100.00;99329.84;5036659;28;20203;-60
2024/04/01 00:37:39;;;;;;;16.35;12.15;;;;;;;11.40;100.00;99332.31;5036964;28;20184;-60
2024/04/01 00:40:05;;;;;;;15.77;12.18;;;;;;;11.34;100.00;99327.41;5035899;28;20193;-60
2024/04/01 00:42:31;;;;;;;15.20;12.70;;;;;;;11.31;100.00;99327.59;5036543;28;20195;-61
2024/04/01 00:44:57;;;;;;;17.83;12.82;;;;;;;11.29;100.00;99332.22;5036257;28;20172;-59
2024/04/01 00:47:23;;;;;;;21.10;13.25;;;;;;;11.26;100.00;99329.78;5040974;28;20711;-59
2024/04/01 00:49:49;;;;;;;16.85;12.07;;;;;;;11.26;100.00;99345.00;5042686;28;20197;-59
2024/04/01 00:52:15;;;;;;;19.75;12.55;;;;;;;11.18;100.00;99354.44;5048115;28;20541;-60
2024/04/01 00:54:42;;;;;;;17.98;12.05;;;;;;;11.16;100.00;99342.09;5042809;28;20642;-60
2024/04/01 00:57:07;;;;;;;20.05;13.98;;;;;;;11.07;100.00;99354.31;5030067;28;20237;-61
2024/04/01 00:59:33;;;;;;;19.63;14.60;;;;;;;10.99;100.00;99340.59;5034749;28;20667;-58
2024/04/01 01:01:58;;;;;;;23.15;13.98;;;;;;;11.02;100.00;99343.91;5047725;28;20221;-58
2024/04/01 01:04:23;;;;;;;19.75;13.32;;;;;;;11.03;100.00;99344.78;5053534;28;20196;-58
2024/04/01 01:06:49;;;;;;;18.25;13.65;;;;;;;10.98;100.00;99338.84;5052308;28;20199;-58
2024/04/01 01:09:14;;;;;;;17.05;13.65;;;;;;;10.93;100.00;99333.81;5053544;28;20281;-61
2024/04/01 01:11:40;;;;;;;19.77;14.27;;;;;;;10.93;100.00;99328.47;5054002;28;20180;-60
2024/04/01 01:14:05;;;;;;;21.38;15.00;;;;;;;10.87;100.00;99313.69;5051786;28;20211;-59
2024/04/01 01:16:31;;;;;;;19.27;13.95;;;;;;;10.83;100.00;99316.69;5053890;28;20708;-60
2024/04/01 01:18:56;;;;;;;18.80;14.40;;;;;;;10.78;100.00;99308.97;5052737;28;20176;-59
2024/04/01 01:21:21;;;;;;;22.98;15.00;;;;;;;10.45;100.00;99312.09;5041826;28;20275;-59
2024/04/01 01:23:47;;;;;;;19.15;14.82;;;;;;;10.46;100.00;99317.34;5052812;28;20600;-58
2024/04/01 01:26:12;;;;;;;21.38;13.63;;;;;;;10.53;100.00;99323.16;5052859;28;20198;-59
2024/04/01 01:28:38;;;;;;;24.20;15.95;;;;;;;10.55;100.00;99323.03;5047797;28;20191;-60
2024/04/01 01:31:03;;;;;;;21.02;13.70;;;;;;;10.57;100.00;99330.03;5045902;28;20657;-59
2024/04/01 01:33:30;;;;;;;19.25;13.88;;;;;;;10.56;100.00;99333.66;5052688;28;20261;-58
2024/04/01 01:35:56;;;;;;;21.42;15.23;;;;;;;10.60;100.00;99339.69;5052158;28;20714;-60
2024/04/01 01:38:21;;;;;;;24.60;15.52;;;;;;;10.60;100.00;99339.69;5052526;28;20268;-60
2024/04/01 01:40:47;;;;;;;23.38;15.40;;;;;;;10.63;100.00;99347.50;5053053;28;20267;-60
2024/04/01 01:43:12;;;;;;;22.00;14.82;;;;;;;10.56;100.00;99348.88;5051799;28;20241;-60
2024/04/01 01:45:37;;;;;;;24.48;16.58;;;;;;;10.57;100.00;99348.75;5052720;28;20552;-60
2024/04/01 01:48:03;;;;;;;23.23;16.50;;;;;;;10.52;100.00;99357.09;5051218;28;20192;-61
2024/04/01 01:50:28;;;;;;;23.60;16.00;;;;;;;10.45;100.00;99336.19;5051108;28;20179;-61
2024/04/01 01:52:54;;;;;;;22.40;14.27;;;;;;;10.47;100.00;99332.44;5049711;28;20227;-59
2024/04/01 01:55:19;;;;;;;22.85;15.77;;;;;;;10.44;100.00;99335.31;5053008;28;20595;-59
2024/04/01 01:58:28;;;;;;;22.52;15.65;;;;;;;10.45;100.00;99339.72;5049295;28;20634;-58
2024/04/01 02:00:53;;;;;;;22.30;15.30;;;;;;;10.36;100.00;99326.97;4948089;29;20297;-65
2024/04/01 02:03:18;;;;;;;21.63;15.55;;;;;;;10.35;100.00;99326.13;4955439;28;20286;-63
2024/04/01 02:05:44;;;;;;;23.77;16.00;;;;;;;10.37;100.00;99328.69;4955433;28;20190;-62
2024/04/01 02:08:09;;;;;;;19.17;14.90;;;;;;;10.33;100.00;99329.84;4955438;29;20215;-65
2024/04/01 02:10:36;;;;;;;21.17;15.75;;;;;;;10.26;100.00;99317.78;4955348;29;20592;-65
2024/04/01 02:13:02;;;;;;;24.70;15.98;;;;;;;10.17;100.00;99316.59;4955664;29;20647;-65
2024/04/01 02:15:27;;;;;;;20.13;14.95;;;;;;;10.15;100.00;99326.53;4955152;28;20649;-65
2024/04/01 02:17:53;;;;;;;24.92;16.90;;;;;;;10.18;100.00;99342.38;4955088;29;20214;-65
2024/04/01 02:20:19;;;;;;;25.80;17.75;;;;;;;10.24;100.00;99339.28;4955066;29;20187;-64
2024/04/01 02:22:45;;;;;;;23.58;16.13;;;;;;;10.14;100.00;99346.22;4955050;29;20278;-65
2024/04/01 02:25:17;;;;;;;21.80;16.38;;;;;;;10.08;100.00;99336.78;4954906;29;20195;-65
2024/04/01 02:27:43;;;;;;;21.55;15.45;;;;;;;9.98;100.00;99341.88;4955148;29;20705;-65
2024/04/01 02:30:09;;;;;;;24.95;17.92;;;;;;;9.95;100.00;99342.09;4954882;29;20179;-65
2024/04/01 02:32:34;;;;;;;21.55;15.93;;;;;;;9.97;100.00;99341.97;4968875;28;20220;-65
2024/04/01 02:34:59;;;;;;;20.30;15.68;;;;;;;9.96;100.00;99349.13;4974072;28;20546;-65
2024/04/01 02:37:25;;;;;;;23.23;16.27;;;;;;;9.94;100.00;99345.69;4974175;28;20376;-65
2024/04/01 02:39:50;;;;;;;19.30;14.48;;;;;;;9.94;100.00;99343.03;4974333;28;20182;-65
2024/04/01 02:42:15;;;;;;;24.80;16.55;;;;;;;9.83;100.00;99337.50;4973394;28;20229;-65
2024/04/01 02:44:41;;;;;;;22.05;16.10;;;;;;;9.92;100.00;99339.59;4974020;28;20221;-65
2024/04/01 02:47:06;;;;;;;23.33;16.75;;;;;;;9.93;100.00;99340.44;4974358;28;20199;-62
2024/04/01 02:49:31;;;;;;;23.10;16.50;;;;;;;9.89;100.00;99342.47;4974044;28;20178;-64
2024/04/01 02:51:57;;;;;;;22.27;16.13;;;;;;;9.83;100.00;99342.84;4973844;28;20186;-65
2024/04/01 02:54:23;;;;;;;21.10;16.67;;;;;;;9.62;100.00;99343.25;4974207;28;20189;-64
2024/04/01 02:56:48;;;;;;;22.25;17.10;;;;;;;9.66;100.00;99319.00;4974320;28;20610;-64
2024/04/01 02:59:14;;;;;;;24.98;17.55;;;;;;;9.73;100.00;99333.72;4973945;28;20312;-64
2024/04/01 03:01:42;;;;;;;23.15;15.93;;;;;;;9.76;100.00;99338.88;4956583;28;20186;-64
2024/04/01 03:04:07;;;;;;;24.38;16.50;;;;;;;9.75;100.00;99339.81;4974008;28;20186;-64
2024/04/01 03:06:33;;;;;;;23.15;17.70;;;;;;;9.68;100.00;99330.44;4973708;28;20194;-64
2024/04/01 03:08:59;;;;;;;21.42;15.95;;;;;;;9.72;100.00;99340.84;4973754;28;20195;-64
2024/04/01 03:11:24;;;;;;;19.35;15.68;;;;;;;9.76;100.00;99341.53;4973820;28;20202;-64
2024/04/01 03:13:50;;;;;;;21.50;16.35;;;;;;;9.69;100.00;99343.72;4974181;28;20261;-64
2024/04/01 03:16:16;;;;;;;25.98;18.17;;;;;;;9.66;100.00;99359.97;4974008;28;20393;-64
2024/04/01 03:18:42;;;;;;;23.23;16.55;;;;;;;9.66;100.00;99356.44;4974253;28;20216;-64
2024/04/01 03:21:08;;;;;;;22.98;16.85;;;;;;;9.71;100.00;99357.00;4956600;28;20593;-64
2024/04/01 03:23:33;;;;;;;23.15;16.98;;;;;;;9.71;100.00;99349.84;4973836;28;20218;-64
2024/04/01 03:25:59;;;;;;;29.70;19.48;;;;;;;9.65;100.00;99355.59;4973894;28;20669;-64
2024/04/01 03:28:25;;;;;;;35.67;20.33;;;;;;;9.45;100.00;99338.97;4974016;28;20194;-64
2024/04/01 03:30:50;;;;;;;21.40;16.13;;;;;;;9.52;100.00;99326.06;4973627;28;20244;-64
2024/04/01 03:33:16;;;;;;;24.05;17.23;;;;;;;9.65;100.00;99328.84;4973728;28;20522;-64
2024/04/01 03:35:42;;;;;;;21.45;16.17;;;;;;;9.62;100.00;99321.03;4973503;28;20191;-64
2024/04/01 03:38:08;;;;;;;27.70;18.70;;;;;;;9.59;100.00;99337.25;4973901;28;20193;-64
2024/04/01 03:40:38;;;;;;;26.42;17.65;;;;;;;9.63;100.00;99330.75;4973518;28;20332;-64
2024/04/01 03:43:05;;;;;;;22.58;16.58;;;;;;;9.39;100.00;99285.91;4973892;28;20187;-64
2024/04/01 03:45:30;;;;;;;26.25;17.92;;;;;;;9.61;100.00;99328.16;4973502;28;20269;-64
2024/04/01 03:47:56;;;;;;;21.33;16.25;;;;;;;9.67;100.00;99334.09;4973501;28;20293;-64
2024/04/01 03:50:21;;;;;;;23.95;17.35;;;;;;;9.67;100.00;99336.78;4973540;28;20209;-65
2024/04/01 03:52:46;;;;;;;23.48;16.08;;;;;;;9.67;100.00;99339.44;4973368;28;20218;-62
2024/04/01 03:55:12;;;;;;;24.60;17.02;;;;;;;9.61;100.00;99348.72;4975879;28;20189;-62
2024/04/01 03:57:37;;;;;;;21.35;16.50;;;;;;;9.59;100.00;99338.13;4977057;28;20265;-63
2024/04/01 04:00:04;;;;;;;24.35;17.30;;;;;;;9.61;100.00;99338.00;4976592;28;20293;-63
2024/04/01 04:02:29;;;;;;;24.80;18.00;;;;;;;9.57;100.00;99329.34;4977248;28;20187;-64
2024/04/01 04:04:54;;;;;;;25.58;17.42;;;;;;;9.42;100.00;99327.63;4975457;28;20198;-63
2024/04/01 04:07:20;;;;;;;22.27;17.10;;;;;;;9.44;100.00;99328.38;4976953;28;20257;-63
2024/04/01 04:09:46;;;;;;;24.85;17.10;;;;;;;9.49;100.00;99331.63;4975395;28;20225;-64
2024/04/01 04:12:11;;;;;;;21.48;16.75;;;;;;;9.49;100.00;99328.09;4976878;28;20280;-63
2024/04/01 04:14:37;;;;;;;23.70;16.02;;;;;;;9.50;100.00;99332.50;4976877;28;20689;-63
2024/04/01 04:17:02;;;;;;;22.65;16.42;;;;;;;9.43;100.00;99332.88;4976661;28;20244;-64
2024/04/01 04:19:27;;;;;;;22.48;16.92;;;;;;;9.34;100.00;99320.09;4976829;28;20198;-64
2024/04/01 04:21:53;;;;;;;21.83;16.60;;;;;;;9.43;100.00;99337.34;4976747;28;20277;-63
2024/04/01 04:24:19;;;;;;;21.70;16.85;;;;;;;9.44;100.00;99339.94;4976560;28;20645;-63
2024/04/01 04:26:44;;;;;;;23.88;19.13;;;;;;;9.32;100.00;99331.84;4976623;28;20236;-63
2024/04/01 04:29:10;;;;;;;28.88;18.85;;;;;;;9.29;100.00;99338.22;4976458;28;20273;-63
2024/04/01 04:31:35;;;;;;;26.77;17.83;;;;;;;9.27;100.00;99327.63;4976088;28;20221;-63
2024/04/01 04:34:01;;;;;;;28.92;20.10;;;;;;;9.25;100.00;99336.72;4975092;28;20577;-64
2024/04/01 04:36:26;;;;;;;26.70;18.95;;;;;;;9.16;100.00;99332.78;4976355;28;20253;-63
2024/04/01 04:38:53;;;;;;;21.42;17.67;;;;;;;9.26;100.00;99333.94;4976302;28;20205;-63
2024/04/01 04:41:18;;;;;;;26.67;18.33;;;;;;;9.23;100.00;99346.59;4974995;28;20182;-63
2024/04/01 04:43:44;;;;;;;28.00;19.52;;;;;;;9.24;100.00;99335.81;4976121;28;20257;-63
2024/04/01 04:46:13;;;;;;;26.20;18.40;;;;;;;9.22;100.00;99336.91;4969558;28;20194;-63
2024/04/01 04:48:42;;;;;;;28.30;17.15;;;;;;;9.31;100.00;99348.81;4969061;28;20201;-63
2024/04/01 04:51:08;;;;;;;26.42;19.42;;;;;;;9.24;100.00;99340.31;4976248;28;20191;-63
2024/04/01 04:53:34;;;;;;;22.38;16.67;;;;;;;9.28;100.00;99342.72;4975860;28;20269;-63
2024/04/01 04:56:00;;;;;;;25.65;18.15;;;;;;;9.17;100.00;99344.31;4975999;28;20649;-65
2024/04/01 04:58:25;;;;;;;26.60;19.73;;;;;;;9.17;100.00;99339.81;4975766;28;20199;-63
2024/04/01 05:00:50;;;;;;;34.05;21.50;;;;;;;9.21;100.00;99345.84;4976045;28;20190;-63
2024/04/01 05:03:16;;;;;;;27.50;20.23;;;;;;;9.27;100.00;99346.31;4976205;28;20209;-63
2024/04/01 05:05:41;;;;;;;31.83;20.92;;;;;;;9.16;100.00;99338.13;4973915;28;20217;-63
2024/04/01 05:08:06;;;;;;;26.77;20.17;;;;;;;9.26;100.00;99347.31;4975673;28;20203;-63
2024/04/01 05:10:33;;;;;;;23.60;19.02;;;;;;;9.25;100.00;99334.03;4975843;28;20210;-63
2024/04/01 05:12:59;;;;;;;26.42;19.65;;;;;;;9.27;100.00;99351.66;4975366;28;20677;-63
2024/04/01 05:15:24;;;;;;;30.60;19.85;;;;;;;9.26;100.00;99351.75;4975258;28;20182;-63
2024/04/01 05:17:50;;;;;;;23.88;18.17;;;;;;;9.31;100.00;99362.16;4974378;28;20190;-63
2024/04/01 05:20:15;;;;;;;29.85;22.27;;;;;;;9.26;100.00;99357.09;4975405;28;20253;-63
2024/04/01 05:22:40;;;;;;;27.48;19.63;;;;;;;9.15;100.00;99339.06;4975405;28;20195;-63
2024/04/01 05:25:06;;;;;;;29.95;21.58;;;;;;;9.32;100.00;99358.56;4974150;28;20202;-63
2024/04/01 05:27:31;;;;;;;27.30;18.92;;;;;;;9.31;100.00;99362.16;4975204;28;20183;-63
2024/04/01 05:30:04;;;;;;;30.48;21.17;;;;;;;9.29;100.00;99354.25;4975051;28;20190;-65
2024/04/01 05:32:31;;;;;;;33.60;21.52;;;;;;;9.34;100.00;99367.31;4957865;28;20265;-65
2024/04/01 05:34:56;;;;;;;32.17;22.65;;;;;;;9.43;100.00;99364.97;4975805;28;20204;-64
2024/04/01 05:37:22;;;;;;;35.65;25.75;;;;;;;9.52;100.00;99368.84;4975323;28;20269;-63
2024/04/01 05:39:49;;;;;;;36.47;25.05;;;;;;;9.45;100.00;99375.56;4975321;28;20221;-64
2024/04/01 05:42:14;;;;;;;31.70;22.75;;;;;;;9.41;100.00;99374.88;4975130;28;20198;-64
2024/04/01 05:44:40;;;;;;;37.88;24.27;;;;;;;9.42;100.00;99378.41;4974973;28;20195;-64
2024/04/01 05:47:05;;;;;;;35.10;23.50;;;;;;;9.56;100.00;99388.25;4973795;28;20198;-63
2024/04/01 05:49:30;;;;;;;33.88;24.55;;;;;;;9.57;100.00;99400.63;4975034;28;20547;-63
2024/04/01 05:51:56;;;;;;;34.08;22.90;;;;;;;9.61;100.00;99386.13;4975210;28;20198;-63
2024/04/01 05:54:21;;;;;;;37.53;23.98;;;;;;;9.63;100.00;99374.41;4974883;28;20210;-63
2024/04/01 05:56:46;;;;;;;31.30;22.35;;;;;;;9.72;100.00;99386.31;4974868;28;20624;-63
2024/04/01 05:59:12;;;;;;;34.35;24.23;;;;;;;9.81;100.00;99392.91;4974357;28;20257;-63
2024/04/01 06:01:37;;;;;;;31.17;22.95;;;;;;;9.68;100.00;99390.16;4974782;28;20237;-65
2024/04/01 06:04:03;;;;;;;35.60;22.67;;;;;;;9.66;100.00;99391.19;4974808;28;20198;-64
2024/04/01 06:06:28;;;;;;;32.58;22.85;;;;;;;9.79;100.00;99397.50;4974637;28;20273;-65
2024/04/01 06:08:53;;;;;;;32.75;24.17;;;;;;;9.61;100.00;99383.47;4974743;28;20186;-64
2024/04/01 06:11:18;;;;;;;30.20;22.65;;;;;;;9.73;100.00;99401.41;4974456;28;20189;-65
2024/04/01 06:13:44;;;;;;;34.00;23.90;;;;;;;9.80;100.00;99396.53;4975313;28;20237;-65
2024/04/01 06:16:10;;;;;;;31.27;23.50;;;;;;;9.78;100.00;99401.13;4973465;28;20229;-65
2024/04/01 06:18:35;;;;;;;29.40;22.33;;;;;;;9.88;100.00;99385.38;4974409;28;20277;-64
2024/04/01 06:21:00;;;;;;;31.85;23.48;;;;;;;9.85;100.00;99377.50;4975010;28;20641;-65
2024/04/01 06:23:27;;;;;;;34.25;23.27;;;;;;;9.87;100.00;99392.50;4974607;28;20550;-65
2024/04/01 06:25:53;;;;;;;34.25;24.13;;;;;;;9.98;100.00;99395.38;4975020;28;20201;-65
2024/04/01 06:28:18;;;;;;;35.13;24.15;;;;;;;10.02;100.00;99396.03;4974863;28;20187;-65
2024/04/01 06:30:44;;;;;;;34.72;24.70;;;;;;;10.12;100.00;99398.97;4974646;28;20186;-65
2024/04/01 06:33:09;;;;;;;36.33;25.42;;;;;;;10.20;100.00;99407.38;4973532;28;20285;-63
2024/04/01 06:35:34;;;;;;;36.70;24.98;;;;;;;10.18;100.00;99406.59;4973538;28;20645;-64
2024/04/01 06:38:00;;;;;;;32.08;24.58;;;;;;;10.13;100.00;99408.72;4974804;28;20193;-64
2024/04/01 06:40:25;;;;;;;31.45;24.83;;;;;;;10.03;100.00;99416.50;4974682;28;20201;-64
2024/04/01 06:42:51;;;;;;;32.05;24.95;;;;;;;10.18;100.00;99404.81;4974799;28;20182;-64
2024/04/01 06:45:16;;;;;;;36.22;24.13;;;;;;;10.23;100.00;99404.50;4974914;28;20269;-64
2024/04/01 06:47:45;;;;;;;39.10;24.92;;;;;;;10.23;100.00;99395.59;4974748;28;20261;-64
2024/04/01 06:50:10;;;;;;;35.42;25.35;;;;;;;10.12;100.00;99410.53;4974874;28;20182;-64
2024/04/01 06:52:36;;;;;;;33.15;24.08;;;;;;;10.26;100.00;99416.81;4974809;28;20705;-64
2024/04/01 06:55:01;;;;;;;38.22;25.00;;;;;;;10.21;100.00;99416.25;4974448;28;20206;-64
2024/04/01 06:57:26;;;;;;;39.00;26.58;;;;;;;10.00;100.00;99417.53;4974560;28;20179;-64
2024/04/01 06:59:52;;;;;;;33.47;25.95;;;;;;;10.24;100.00;99413.38;4974646;28;20226;-64
2024/04/01 07:02:17;;;;;;;36.90;26.35;;;;;;;10.36;100.00;99412.63;4974500;28;20179;-64
2024/04/01 07:04:42;;;;;;;36.17;25.15;;;;;;;10.40;100.00;99406.09;4957164;28;20713;-64
2024/04/01 07:07:08;;;;;;;33.30;23.30;;;;;;;10.34;100.00;99410.03;4964009;28;20183;-64
2024/04/01 07:09:33;;;;;;;35.10;25.08;;;;;;;10.46;100.00;99411.06;4970978;28;20199;-64
2024/04/01 07:11:58;;;;;;;37.45;26.05;;;;;;;10.47;100.00;99417.25;4974267;28;20190;-64
2024/04/01 07:14:25;;;;;;;41.13;28.05;;;;;;;10.29;100.00;99405.91;4974389;28;20210;-64
2024/04/01 07:16:50;;;;;;;36.53;27.08;;;;;;;10.48;100.00;99430.53;4974658;28;20225;-64
2024/04/01 07:19:16;;;;;;;33.50;26.20;;;;;;;10.51;100.00;99421.47;4962559;28;20618;-64
2024/04/01 07:21:41;;;;;;;36.90;26.48;;;;;;;10.62;100.00;99429.63;4956186;28;20186;-64
2024/04/01 07:24:06;;;;;;;37.38;27.05;;;;;;;10.78;100.00;99436.66;4974429;28;20198;-64
2024/04/01 07:26:32;;;;;;;36.92;25.80;;;;;;;10.67;100.00;99440.94;4974149;28;20197;-64
2024/04/01 07:28:57;;;;;;;36.85;25.65;;;;;;;10.75;100.00;99447.56;4974901;28;20277;-64
2024/04/01 07:31:22;;;;;;;33.80;23.95;;;;;;;10.75;100.00;99450.25;4976472;28;20550;-64
2024/04/01 07:33:48;;;;;;;39.63;25.38;;;;;;;10.66;100.00;99444.56;4977728;28;20209;-64
2024/04/01 07:36:13;;;;;;;36.00;24.48;;;;;;;10.64;100.00;99446.47;4977868;28;20181;-64
2024/04/01 07:38:38;;;;;;;37.83;23.27;;;;;;;10.59;100.00;99448.59;4978120;28;20195;-64
2024/04/01 07:41:06;;;;;;;33.28;22.08;;;;;;;10.59;100.00;99448.59;4976870;28;20200;-64
2024/04/01 07:43:31;;;;;;;30.92;21.85;;;;;;;10.66;100.00;99454.41;4978120;28;20264;-64
2024/04/01 07:45:56;;;;;;;35.40;23.65;;;;;;;10.80;100.00;99443.63;4977474;28;20269;-64
2024/04/01 07:48:22;;;;;;;27.42;20.67;;;;;;;10.56;100.00;99458.66;4966420;28;20183;-64
2024/04/01 07:50:47;;;;;;;34.67;22.83;;;;;;;10.74;100.00;99457.44;4975193;28;20175;-65
2024/04/01 07:53:12;;;;;;;30.65;20.40;;;;;;;10.92;100.00;99460.72;4977635;28;20217;-64
2024/04/01 07:55:38;;;;;;;28.10;19.02;;;;;;;10.93;100.00;99461.56;4964668;28;20178;-64
2024/04/01 07:58:04;;;;;;;30.38;19.30;;;;;;;10.88;100.00;99467.25;4976011;28;20269;-64
2024/04/01 08:00:32;;;;;;;26.35;18.80;;;;;;;11.09;100.00;99461.38;4978007;28;20230;-64
2024/04/01 08:02:57;;;;;;;25.70;17.00;;;;;;;11.15;100.00;99451.13;4977335;28;20202;-64
2024/04/01 08:05:22;;;;;;;27.70;18.10;;;;;;;11.09;100.00;99461.38;4977800;28;20221;-64
2024/04/01 08:07:48;;;;;;;23.55;16.45;;;;;;;10.94;100.00;99463.28;4976616;28;20182;-64
2024/04/01 08:10:13;;;;;;;22.48;16.13;;;;;;;10.92;100.00;99482.16;4977346;28;20185;-65
2024/04/01 08:12:38;;;;;;;25.42;15.85;;;;;;;11.10;100.00;99485.41;4977184;28;20202;-65
2024/04/01 08:15:04;;;;;;;27.10;15.82;;;;;;;10.89;100.00;99479.69;4977423;28;20273;-65
2024/04/01 08:17:29;;;;;;;22.40;15.13;;;;;;;10.89;100.00;99487.72;4977536;28;20300;-64
2024/04/01 08:19:55;;;;;;;24.42;14.85;;;;;;;10.94;100.00;99480.22;4964851;28;20206;-64
2024/04/01 08:22:21;;;;;;;19.40;13.07;;;;;;;11.00;100.00;99473.59;4977362;28;20186;-64
2024/04/01 08:24:47;;;;;;;18.70;14.02;;;;;;;11.03;100.00;99487.66;4976922;28;20190;-64
2024/04/01 08:27:14;;;;;;;19.75;13.45;;;;;;;11.32;100.00;99487.50;4977301;28;20182;-64
2024/04/01 08:29:39;;;;;;;17.63;11.77;;;;;;;11.40;100.00;99493.19;4973746;28;20184;-64
2024/04/01 08:32:05;;;;;;;19.98;11.55;;;;;;;11.32;100.00;99487.50;4968114;28;20206;-64
2024/04/01 08:34:30;;;;;;;14.85;11.32;;;;;;;11.48;100.00;99483.78;4977022;28;20183;-64
2024/04/01 08:36:55;;;;;;;17.63;11.27;;;;;;;11.38;100.00;99494.28;4977047;28;20552;-65
2024/04/01 08:39:21;;;;;;;14.25;10.60;;;;;;;11.32;100.00;99503.59;4976881;28;20221;-64
2024/04/01 08:41:52;;;;;;;18.95;11.05;;;;;;;11.39;100.00;99499.53;4976762;28;20197;-64
2024/04/01 08:44:19;;;;;;;14.80;9.68;;;;;;;11.53;100.00;99503.09;4975931;28;20184;-64
2024/04/01 08:46:48;;;;;;;13.02;9.30;;;;;;;11.53;100.00;99495.03;4964452;28;20195;-64
2024/04/01 08:49:14;;;;;;;18.10;10.38;;;;;;;11.66;100.00;99497.75;4974265;28;20266;-64
2024/04/01 08:51:40;;;;;;;12.18;8.90;;;;;;;11.74;100.00;99498.06;4975518;28;20186;-64
2024/04/01 08:54:08;;;;;;;14.82;8.43;;;;;;;11.59;100.00;99502.66;4976295;28;20206;-64
2024/04/01 08:56:37;;;;;;;13.60;8.95;;;;;;;11.34;100.00;99493.63;4959752;28;20253;-64
2024/04/01 08:59:03;;;;;;;12.38;8.50;;;;;;;11.62;100.00;99506.97;4976566;28;20225;-64
2024/04/01 09:01:28;;;;;;;13.57;7.82;;;;;;;11.52;100.00;99512.13;4959459;28;20583;-64
2024/04/01 09:03:54;;;;;;;9.27;6.43;;;;;;;11.34;100.00;99514.22;4959372;28;20269;-64
2024/04/01 09:06:19;;;;;;;8.85;6.75;;;;;;;11.38;100.00;99516.59;4976098;28;20641;-64
2024/04/01 09:08:46;;;;;;;9.10;5.95;;;;;;;11.45;100.00;99518.84;4952888;28;20194;-64
2024/04/01 09:11:12;;;;;;;11.20;6.32;;;;;;;11.43;100.00;99513.59;4952134;28;20178;-64
2024/04/01 09:13:38;;;;;;;9.57;5.10;;;;;;;11.34;100.00;99514.22;4976016;28;20572;-64
2024/04/01 09:16:04;;;;;;;9.52;4.65;;;;;;;11.57;100.00;99516.16;4976199;28;20194;-64
2024/04/01 09:18:36;;;;;;;8.18;4.07;;;;;;;11.59;100.00;99511.59;4970587;28;20187;-64
2024/04/01 09:21:03;;;;;;;5.85;3.33;;;;;;;11.38;100.00;99513.91;4969827;28;20210;-64
2024/04/01 09:23:31;;;;;;;7.13;3.25;;;;;;;11.55;100.00;99517.25;4942985;28;20178;-64
2024/04/01 09:25:59;;;;;;;3.53;2.50;;;;;;;11.55;100.00;99523.47;4963406;28;20206;-65
2024/04/01 09:28:25;;;;;;;6.25;2.72;;;;;;;11.60;100.00;99523.16;4976394;28;20183;-64
2024/04/01 09:30:50;;;;;;;5.65;2.92;;;;;;;11.59;100.00;99534.84;4974607;28;20201;-64
2024/04/01 09:33:15;;;;;;;9.98;2.67;;;;;;;11.44;100.00;99520.69;4976045;28;20211;-64
2024/04/01 09:35:41;;;;;;;5.95;2.38;;;;;;;11.59;100.00;99537.53;4975987;28;20228;-64
2024/04/01 09:38:07;;;;;;;3.80;1.95;;;;;;;11.51;100.00;99521.09;4976273;28;20179;-64
2024/04/01 09:40:33;;;;;;;5.40;2.13;;;;;;;11.36;100.00;99539.97;4975939;28;20186;-64
2024/04/01 09:43:00;;;;;;;6.30;2.15;;;;;;;11.69;100.00;99543.13;4975800;28;20708;-64
2024/04/01 09:45:28;;;;;;;3.70;2.58;;;;;;;11.74;100.00;99543.66;4975305;28;20187;-64
2024/04/01 09:47:53;;;;;;;12.45;3.55;;;;;;;11.35;100.00;99542.75;4958812;28;20292;-64
2024/04/01 09:50:20;;;;;;;7.15;3.78;;;;;;;11.27;100.00;99540.59;4975413;28;20293;-65
2024/04/01 09:52:46;;;;;;;8.50;4.22;;;;;;;11.07;100.00;99545.44;4947634;28;20560;-65
2024/04/01 09:55:35;;;;;;;6.97;4.25;;;;;;;11.09;100.00;99549.81;4968576;28;20191;-65
2024/04/01 09:58:32;;;;;;;9.20;4.35;;;;;;;11.22;100.00;99561.47;4954685;28;20190;-64
2024/04/01 10:01:09;;;;;;;14.57;5.25;;;;;;;10.97;100.00;99579.16;4963769;28;20668;-64
2024/04/01 10:03:46;;;;;;;14.43;7.05;;;;;;;11.18;100.00;99570.66;4975037;28;20218;-65
2024/04/01 10:06:36;;;;;;;10.93;7.13;;;;;;;11.17;100.00;99582.34;4975232;28;20205;-65
2024/04/01 10:09:35;;;;;;;12.30;6.50;;;;;;;11.05;100.00;99575.97;4975488;28;20186;-65
2024/04/01 10:12:36;;;;;;;18.98;7.00;;;;;;;11.03;100.00;99585.94;4975143;28;20677;-65
2024/04/01 10:15:24;;;;;;;15.77;6.85;;;;;;;11.13;100.00;99560.25;4975082;28;20194;-65
2024/04/01 10:18:03;;;;;;;12.27;5.13;;;;;;;11.10;100.00;99581.88;4974661;28;20186;-65
2024/04/01 10:20:47;;;;;;;8.63;5.13;;;;;;;11.47;100.00;99579.47;4973713;28;20301;-65
2024/04/01 10:23:25;;;;;;;11.25;5.10;;;;;;;11.64;100.00;99580.13;4935318;28;20324;-65
2024/04/01 10:26:27;;;;;;;14.10;6.18;;;;;;;11.53;100.00;99576.38;4980992;28;20188;-65
2024/04/01 10:29:30;;;;;;;12.38;4.18;;;;;;;11.53;100.00;99584.41;4974407;28;20264;-64
2024/04/01 10:32:33;;;;;;;6.32;4.10;;;;;;;11.43;100.00;99578.78;4974384;28;20213;-64
2024/04/01 10:35:25;;;;;;;16.63;4.43;;;;;;;11.40;100.00;99594.22;4973188;28;20194;-65
2024/04/01 10:38:09;;;;;;;9.93;4.03;;;;;;;11.56;100.00;99584.22;4973096;28;20288;-65
2024/04/01 10:40:57;;;;;;;5.95;2.28;;;;;;;11.50;100.00;99586.41;4974354;28;20257;-64
2024/04/01 10:43:25;;;;;;;5.20;2.40;;;;;;;11.30;100.00;99590.44;4965399;28;20194;-64
2024/04/01 10:46:27;;;;;;;9.02;2.35;;;;;;;11.34;100.00;99590.13;4974373;28;20569;-64
2024/04/01 10:49:04;;;;;;;9.43;2.85;;;;;;;11.41;100.00;99591.44;4973029;28;20405;-66
2024/04/01 10:51:49;;;;;;;11.30;3.28;;;;;;;11.34;100.00;99591.97;4974290;28;20194;-65
2024/04/01 10:54:16;;;;;;;8.73;2.35;;;;;;;11.35;100.00;99578.47;4955205;28;20209;-65
2024/04/01 10:56:52;;;;;;;13.27;2.78;;;;;;;11.38;100.00;99596.16;4972641;28;20244;-65
2024/04/01 10:59:39;;;;;;;10.65;2.22;;;;;;;11.39;100.00;99597.88;4973772;28;20230;-63
2024/04/01 11:02:32;;;;;;;9.88;2.40;;;;;;;11.50;100.00;99599.84;4973787;28;20193;-63
2024/04/01 11:05:25;;;;;;;10.23;2.38;;;;;;;11.76;100.00;99606.13;4976491;28;20672;-66
2024/04/01 11:08:10;;;;;;;7.63;2.45;;;;;;;11.74;100.00;99603.53;4977810;28;20198;-64
2024/04/01 11:10:39;;;;;;;8.43;2.20;;;;;;;11.68;100.00;99597.75;4965297;28;20184;-63
2024/04/01 11:13:20;;;;;;;9.38;2.00;;;;;;;11.97;100.00;99619.09;4977691;28;20296;-63
2024/04/01 11:15:46;;;;;;;7.72;2.15;;;;;;;11.69;100.00;99615.56;4960501;28;20194;-67
2024/04/01 11:18:14;;;;;;;7.00;1.60;;;;;;;11.97;100.00;99624.44;4976429;28;20190;-63